ADDS METAR Data INFO
IDs: Format: Raw Decoded Include TAF

Data at: 1414 UTC 12 Dec 2017

KPEX 121355Z AUTO 24004KT 10SM OVC060 M11/M13 A3017 RMK AO2 T11111133
KPEX 121335Z AUTO 25005KT 10SM SCT049 SCT060 OVC075 M11/M13 A3018 RMK AO2 T11151135
KPEX 121315Z AUTO 25004KT 10SM SCT049 BKN060 OVC075 M12/M14 A3019 RMK AO2 T11191136
KPEX 121255Z AUTO 25003KT 10SM SCT019 OVC060 M12/M14 A3020 RMK AO2 T11211137
KPEX 121235Z AUTO 00000KT 10SM BKN019 OVC070 M13/M14 A3021 RMK AO2 T11271141
KPEX 121215Z AUTO 00000KT 10SM BKN070 OVC080 M13/M14 A3022 RMK AO2 T11331145
KPEX 121155Z AUTO 00000KT 10SM SCT070 BKN080 M14/M15 A3023 RMK AO2 70002 T11361150 11135 21156
KPEX 121135Z AUTO 27004KT 10SM BKN070 M13/M15 A3024 RMK AO2 T11351149
KPEX 121115Z AUTO 27005KT 10SM OVC070 M13/M15 A3024 RMK AO2 T11351150
KPEX 121055Z AUTO 27005KT 10SM OVC080 M14/M15 A3025 RMK AO2 T11371153
KPEX 121036Z AUTO 28005KT 10SM BKN080 M14/M15 A3026 RMK AO2 T11411154
KPEX 121015Z AUTO 27004KT 10SM SCT080 M15/M17 A3025 RMK AO2 T11551168
KPEX 120955Z AUTO 28004KT 10SM CLR M15/M16 A3026 RMK AO2 T11501165
KPEX 120935Z AUTO 28005KT 10SM CLR M15/M16 A3026 RMK AO2 T11501165
KPEX 120915Z AUTO 28005KT 10SM CLR M15/M16 A3028 RMK AO2 T11521165
KPEX 120855Z AUTO 27006KT 10SM CLR M15/M17 A3028 RMK AO2 T11551168
KPEX 120836Z AUTO 27004KT 10SM CLR M15/M17 A3027 RMK AO2 T11551169
KPEX 120815Z AUTO 28004KT 10SM CLR M15/M17 A3028 RMK AO2 T11511166
KPEX 120755Z AUTO 28005KT 10SM CLR M15/M16 A3027 RMK AO2 T11501164
KPEX 120736Z AUTO 27006KT 10SM CLR M15/M17 A3028 RMK AO2 T11511166
KPEX 120715Z AUTO 29004KT 10SM CLR M14/M16 A3027 RMK AO2 T11401160
KPEX 120655Z AUTO 31006KT 10SM CLR M14/M16 A3028 RMK AO2 T11361157
KPEX 120636Z AUTO 32003KT 10SM CLR M14/M16 A3027 RMK AO2 T11391157
KPEX 120615Z AUTO 00000KT 10SM CLR M14/M16 A3028 RMK AO2 T11381156
KPEX 120555Z AUTO 30006KT 10SM CLR M13/M15 A3027 RMK AO2 T11351153 11067 21135 400201135
KPEX 120536Z AUTO 30006KT 10SM CLR M13/M15 A3028 RMK AO2 T11331151
KPEX 120515Z AUTO 30007KT 10SM CLR M13/M15 A3028 RMK AO2 T11301150
KPEX 120455Z AUTO 30006KT 10SM CLR M13/M15 A3028 RMK AO2 T11271147
KPEX 120436Z AUTO 31007KT 10SM CLR M12/M14 A3028 RMK AO2 T11241145
KPEX 120415Z AUTO 31009KT 10SM CLR M12/M14 A3027 RMK AO2 T11211142
KPEX 120355Z AUTO 31009KT 10SM CLR M12/M14 A3026 RMK AO2 T11191140
KPEX 120335Z AUTO 32009KT 10SM CLR M12/M14 A3026 RMK AO2 T11161136
KPEX 120315Z AUTO 32007KT 10SM CLR M11/M13 A3026 RMK AO2 T11121134
KPEX 120255Z AUTO 31008G15KT 10SM CLR M11/M13 A3025 RMK AO2 T11101130
KPEX 120235Z AUTO 32014KT 10SM CLR M10/M13 A3024 RMK AO2 T11051126
KPEX 120215Z AUTO 31009G16KT 10SM CLR M10/M12 A3024 RMK AO2 T11021121
KPEX 120155Z AUTO 32012G18KT 10SM CLR M10/M12 A3024 RMK AO2 T10981117
KPEX 120135Z AUTO 31010G17KT 10SM CLR M09/M11 A3023 RMK AO2 T10941112
KPEX 120115Z AUTO 31011G18KT 10SM CLR M09/M11 A3021 RMK AO2 T10881108
KPEX 120055Z AUTO 32012G18KT 10SM CLR M08/M10 A3020 RMK AO2 T10831105
KPEX 120035Z AUTO 32014G22KT 10SM CLR M08/M10 A3019 RMK AO2 T10771099
KPEX 120015Z AUTO 32015G21KT 10SM CLR M07/M09 A3018 RMK AO2 T10701095
KPEX 112355Z AUTO 32013G16KT 10SM SCT024 M07/M09 A3017 RMK AO2 T10671092 10015 21067
KPEX 112335Z AUTO 31010G20KT 10SM BKN026 M06/M09 A3015 RMK AO2 T10591086
KPEX 112315Z AUTO 31013G17KT 10SM BKN026 M05/M08 A3013 RMK AO2 T10541080
KPEX 112255Z AUTO 31010G17KT 10SM SCT026 M05/M08 A3012 RMK AO2 T10491077
KPEX 112235Z AUTO 32011G20KT 10SM BKN026 M04/M07 A3010 RMK AO2 T10451073
KPEX 112215Z AUTO 32011G20KT 10SM BKN026 M04/M07 A3009 RMK AO2 T10381068
KPEX 112155Z AUTO 32012G19KT 10SM OVC024 M03/M06 A3007 RMK AO2 T10311062
KPEX 112135Z AUTO 33015G20KT 10SM OVC024 M03/M06 A3006 RMK AO2 T10261056
KPEX 112115Z AUTO 34011G22KT 10SM OVC026 M02/M06 A3004 RMK AO2 T10231062
KPEX 112055Z AUTO 33018G25KT 10SM OVC024 M02/M06 A3003 RMK AO2 T10201057
KPEX 112035Z AUTO 33012G22KT 10SM BKN022 OVC027 M01/M05 A3002 RMK AO2 T10131049
KPEX 112015Z AUTO 34017G26KT 10SM OVC023 M01/M05 A3000 RMK AO2 T10121046
KPEX 111955Z AUTO 33019G26KT 10SM SCT017 OVC023 M01/M04 A2998 RMK AO2 T10071038
KPEX 111935Z AUTO 34013G24KT 10SM BKN015 OVC025 00/M03 A2997 RMK AO2 T10031028
KPEX 111855Z AUTO 33013G23KT 10SM BKN017 OVC021 00/M02 A2994 RMK AO2 T00041016
KPEX 111835Z AUTO 34013G22KT 10SM SCT015 OVC020 01/M01 A2992 RMK AO2 T00091012
KPEX 111815Z AUTO 35016G26KT 10SM OVC022 01/M01 A2990 RMK AO2 T00121012
KPEX 111755Z AUTO 35017G23KT 10SM OVC020 02/M01 A2988 RMK AO2 60002 T00151007 10020 21024
KPEX 111735Z AUTO 33016G25KT 10SM OVC018 02/00 A2987 RMK AO2 T00171005
KPEX 111716Z AUTO 33013G18KT 10SM OVC018 02/00 A2986 RMK AO2 T00170000
KPEX 111655Z AUTO 33011G21KT 10SM OVC016 02/00 A2985 RMK AO2 T00160001
KPEX 111635Z AUTO 32012G19KT 10SM OVC019 02/00 A2984 RMK AO2 T00170002
KPEX 111615Z AUTO 32013G18KT 10SM OVC016 02/00 A2982 RMK AO2 T00180003
KPEX 111555Z AUTO 32012G20KT 10SM BKN016 BKN023 OVC036 02/00 A2980 RMK AO2 P0002 T00200004
KPEX 111535Z AUTO 32015KT 10SM SCT024 BKN031 OVC036 02/00 A2978 RMK AO2 T00180002
KPEX 111515Z AUTO 31010G16KT 10SM BKN025 OVC035 01/00 A2977 RMK AO2 T00110000
KPEX 111455Z AUTO 31009KT 10SM SCT026 OVC035 01/00 A2976 RMK AO2 T00061005
KPEX 111435Z AUTO 31009KT 10SM OVC026 01/M01 A2975 RMK AO2 T00051007
KPEX 111415Z AUTO 30007KT 10SM BKN026 BKN050 OVC120 00/M01 A2974 RMK AO2 T00021010
KPEX 111355Z AUTO 30011KT 10SM SCT030 SCT050 OVC120 00/M01 A2973 RMK AO2 T00001012
KPEX 111335Z AUTO 28007KT 10SM SCT030 BKN120 M01/M02 A2972 RMK AO2 T10071019
KPEX 111315Z AUTO 27006KT 10SM SCT030 BKN075 BKN090 M01/M02 A2971 RMK AO2 T10121020
KPEX 111255Z AUTO 26004KT 10SM BKN030 BKN075 OVC090 M01/M02 A2971 RMK AO2 T10151019
KPEX 111235Z AUTO 00000KT 10SM SCT028 OVC090 M02/M02 A2971 RMK AO2 T10221025
KPEX 111215Z AUTO 00000KT 10SM SCT090 OVC110 M02/M02 A2971 RMK AO2 T10201025
KPEX 111155Z AUTO 00000KT 10SM SCT033 SCT043 OVC100 M02/M02 A2971 RMK AO2 T10161023 11013 21027
KPEX 111135Z AUTO 22003KT 10SM BKN031 OVC043 M01/M02 A2972 RMK AO2 T10151022
KPEX 111115Z AUTO 24004KT 10SM BKN031 BKN036 OVC044 M01/M02 A2972 RMK AO2 T10141022
KPEX 111055Z AUTO 16003KT 10SM BKN047 OVC065 M02/M02 A2970 RMK AO2 T10161025
KPEX 111035Z AUTO 14003KT 10SM SCT050 SCT070 OVC080 M02/M03 A2970 RMK AO2 T10161026
KPEX 111015Z AUTO 00000KT 10SM SCT050 BKN080 BKN110 M02/M03 A2972 RMK AO2 T10201029
KPEX 110955Z AUTO 19004KT 10SM SCT055 OVC080 M02/M03 A2974 RMK AO2 T10201028
KPEX 110935Z AUTO 18004KT 10SM BKN080 M02/M03 A2975 RMK AO2 T10231031
KPEX 110915Z AUTO 17004KT 10SM SCT090 M03/M03 A2977 RMK AO2 T10261035
KPEX 110855Z AUTO 17004KT 10SM SCT090 M03/M03 A2977 RMK AO2 T10271035
KPEX 110835Z AUTO 18004KT 10SM SCT090 M02/M03 A2979 RMK AO2 T10221031
KPEX 110815Z AUTO 17007KT 10SM CLR M02/M03 A2979 RMK AO2 T10251032
KPEX 110755Z AUTO 16007KT 10SM SCT120 M02/M03 A2979 RMK AO2 T10241031
KPEX 110735Z AUTO 16005KT 10SM SCT043 BKN120 M02/M03 A2982 RMK AO2 T10181028
KPEX 110715Z AUTO 17006KT 10SM SCT041 OVC120 M02/M03 A2984 RMK AO2 T10161026
KPEX 110655Z AUTO 18005KT 10SM BKN041 OVC120 M02/M02 A2984 RMK AO2 T10181025
KPEX 110635Z AUTO 00000KT 10SM UP BKN041 OVC050 M02/M02 A2986 RMK AO2 T10191023
KPEX 110615Z AUTO 17003KT 5SM -SN SCT013 SCT022 OVC050 M02/M02 A2987 RMK AO2 T10201023
KPEX 110555Z AUTO 19003KT 2SM -SN OVC011 M02/M02 A2989 RMK AO2 T10211023 11020 21060 410021060
KPEX 110535Z AUTO 21003KT 1 1/2SM -SN OVC007 M02/M02 A2991 RMK AO2 T10221025
KPEX 110515Z AUTO 20003KT 1SM SN OVC007 M02/M03 A2991 RMK AO2 T10231028
KPEX 110455Z AUTO 17004KT 5SM -SN SCT022 BKN033 OVC048 M02/M03 A2990 RMK AO2 T10221035
KPEX 110435Z AUTO 17005KT 7SM -SN SCT036 OVC048 M02/M04 A2991 RMK AO2 T10211038
KPEX 110415Z AUTO 17004KT 10SM BKN040 BKN050 OVC065 M02/M04 A2993 RMK AO2 T10211045
KPEX 110355Z AUTO 17004KT 10SM SCT055 OVC075 M02/M04 A2995 RMK AO2 T10231045
KPEX 110335Z AUTO 00000KT 10SM SCT065 BKN075 OVC085 M03/M04 A2997 RMK AO2 T10261042
KPEX 110315Z AUTO 00000KT 10SM OVC085 M03/M04 A2997 RMK AO2 T10261044
KPEX 110255Z AUTO 00000KT 10SM OVC085 M03/M05 A2997 RMK AO2 T10281046
KPEX 110235Z AUTO 00000KT 10SM OVC085 M04/M05 A2997 RMK AO2 T10391052
KPEX 110215Z AUTO 00000KT 10SM BKN085 M05/M06 A2997 RMK AO2 T10501062